Time;durP1;ratioP1;P1;durP2;ratioP2;P2;SDS_P1;SDS_P2;PMS_P1;PMS_P2;Temp;Humidity;BMP_temperature;BMP_pressure;BME280_temperature;BME280_humidity;BME280_pressure;Samples;Min_cycle;Max_cycle;Signal;HPM_P1;HPM_P2
2022/12/10 00:01:58;;;;;;;;;;;0.40;99.90;;;;;;5042065;28;19930;-67
2022/12/10 00:04:23;;;;;;;;;;;0.40;99.90;;;;;;5041418;28;19913;-66
2022/12/10 00:06:49;;;;;;;;;;;0.40;99.90;;;;;;5031737;28;19928;-67
2022/12/10 00:09:16;;;;;;;;;;;0.40;99.90;;;;;;5038167;28;19913;-67
2022/12/10 00:11:41;;;;;;;;;;;0.40;99.90;;;;;;5039581;28;19913;-66
2022/12/10 00:14:07;;;;;;;;;;;0.40;99.90;;;;;;5043171;28;19921;-66
2022/12/10 00:16:33;;;;;;;;;;;0.40;99.90;;;;;;5034668;28;20031;-67
2022/12/10 00:18:59;;;;;;;;;;;0.30;99.90;;;;;;5040366;28;19913;-67
2022/12/10 00:21:26;;;;;;;;;;;0.30;99.90;;;;;;5039652;28;20012;-66
2022/12/10 00:23:51;;;;;;;;;;;0.30;99.90;;;;;;5040253;28;19956;-66
2022/12/10 00:26:18;;;;;;;;;;;0.20;99.90;;;;;;5040329;28;20005;-66
2022/12/10 00:28:44;;;;;;;;;;;0.30;99.90;;;;;;5035849;28;19921;-66
2022/12/10 00:31:11;;;;;;;;;;;0.30;99.90;;;;;;5036667;28;19917;-66
2022/12/10 00:33:37;;;;;;;;;;;0.20;99.90;;;;;;5042647;28;19920;-66
2022/12/10 00:36:04;;;;;;;;;;;0.20;99.90;;;;;;5043446;28;19917;-66
2022/12/10 00:38:29;;;;;;;;;;;0.20;99.90;;;;;;5039121;28;19917;-66
2022/12/10 00:40:55;;;;;;;;;;;0.20;99.90;;;;;;5040924;28;20364;-66
2022/12/10 00:43:20;;;;;;;;;;;0.20;99.90;;;;;;5044675;28;19913;-66
2022/12/10 00:45:46;;;;;;;;;;;0.20;99.90;;;;;;5041838;28;19978;-68
2022/12/10 00:48:11;;;;;;;;;;;0.20;99.90;;;;;;5035965;28;19924;-67
2022/12/10 00:50:37;;;;;;;;;;;0.10;99.90;;;;;;5038004;28;19917;-67
2022/12/10 00:53:02;;;;;;;;;;;0.20;99.90;;;;;;5036401;28;19913;-67
2022/12/10 00:55:27;;;;;;;;;;;0.20;99.90;;;;;;5045900;28;19919;-67
2022/12/10 00:57:53;;;;;;;;;;;0.20;99.90;;;;;;5035530;28;19982;-67
2022/12/10 01:00:18;;;;;;;;;;;0.20;99.90;;;;;;5035284;28;19913;-67
2022/12/10 01:02:44;;;;;;;;;;;0.00;99.90;;;;;;5038594;28;20316;-66
2022/12/10 01:05:09;;;;;;;;;;;0.00;99.90;;;;;;5036143;28;19974;-66
2022/12/10 01:07:35;;;;;;;;;;;-0.10;99.90;;;;;;5036105;28;19921;-66
2022/12/10 01:10:01;;;;;;;;;;;-0.10;99.90;;;;;;5040365;28;20552;-66
2022/12/10 01:12:26;;;;;;;;;;;-0.10;99.90;;;;;;5037801;28;19920;-66
2022/12/10 01:14:52;;;;;;;;;;;-0.20;99.90;;;;;;5034134;28;19971;-67
2022/12/10 01:17:20;;;;;;;;;;;-0.10;99.90;;;;;;5035091;28;20241;-66
2022/12/10 01:19:46;;;;;;;;;;;-0.10;99.90;;;;;;5041624;28;19995;-66
2022/12/10 01:22:11;;;;;;;;;;;-0.20;99.90;;;;;;5038676;28;19924;-66
2022/12/10 01:24:37;;;;;;;;;;;-0.20;99.90;;;;;;5031984;28;20193;-66
2022/12/10 01:27:02;;;;;;;;;;;-0.20;99.90;;;;;;5034310;28;19952;-66
2022/12/10 01:29:28;;;;;;;;;;;-0.20;99.90;;;;;;5041685;28;20443;-65
2022/12/10 01:31:54;;;;;;;;;;;-0.10;99.90;;;;;;5035845;28;20327;-67
2022/12/10 01:34:20;;;;;;;;;;;-0.20;99.90;;;;;;5036240;28;19917;-66
2022/12/10 01:36:48;;;;;;;;;;;-0.20;99.90;;;;;;5042298;28;19913;-67
2022/12/10 01:39:15;;;;;;;;;;;-0.30;99.90;;;;;;5034590;28;19947;-66
2022/12/10 01:41:45;;;;;;;;;;;-0.30;99.90;;;;;;5036150;28;19920;-66
2022/12/10 01:44:10;;;;;;;;;;;-0.40;99.90;;;;;;5043619;28;19939;-66
2022/12/10 01:46:37;;;;;;;;;;;-0.40;99.90;;;;;;5038754;28;20039;-65
2022/12/10 01:49:07;;;;;;;;;;;-0.40;99.90;;;;;;5039377;28;19913;-66
2022/12/10 01:51:34;;;;;;;;;;;-0.50;99.90;;;;;;5039571;28;19913;-66
2022/12/10 01:54:00;;;;;;;;;;;-0.50;99.90;;;;;;5038717;28;20007;-65
2022/12/10 01:56:25;;;;;;;;;;;-0.40;99.90;;;;;;5035458;28;19996;-66
2022/12/10 01:58:52;;;;;;;;;;;-0.40;99.90;;;;;;5041116;28;19992;-67
2022/12/10 02:01:43;;;;;;;;;;;-0.50;99.90;;;;;;5040777;28;19994;-67
2022/12/10 02:04:32;;;;;;;;;;;-0.50;99.90;;;;;;5038393;28;19921;-67
2022/12/10 02:07:12;;;;;;;;;;;-0.50;99.90;;;;;;5036401;28;20574;-66
2022/12/10 02:09:49;;;;;;;;;;;-0.50;99.90;;;;;;5037837;28;19913;-65
2022/12/10 02:12:16;;;;;;;;;;;-0.40;99.90;;;;;;5037955;28;20600;-66
2022/12/10 02:15:03;;;;;;;;;;;-0.30;99.90;;;;;;5038643;28;19917;-68
2022/12/10 02:17:34;;;;;;;;;;;-0.40;99.90;;;;;;5037172;28;19959;-67
2022/12/10 02:20:25;;;;;;;;;;;-0.30;99.90;;;;;;5042443;28;19917;-67
2022/12/10 02:23:11;;;;;;;;;;;-0.40;99.90;;;;;;5041743;28;20399;-67
2022/12/10 02:25:41;;;;;;;;;;;-0.40;99.90;;;;;;5048759;28;20269;-67
2022/12/10 02:28:30;;;;;;;;;;;-0.30;99.90;;;;;;5042247;28;19917;-69
2022/12/10 02:30:56;;;;;;;;;;;-0.20;99.90;;;;;;5034867;28;19921;-66
2022/12/10 02:33:22;;;;;;;;;;;-0.20;99.90;;;;;;5043210;28;19925;-69
2022/12/10 02:35:49;;;;;;;;;;;-0.30;99.90;;;;;;5039346;28;19920;-68
2022/12/10 02:38:22;;;;;;;;;;;-0.20;99.90;;;;;;5042705;28;19913;-65
2022/12/10 02:40:50;;;;;;;;;;;-0.20;99.90;;;;;;5036528;28;19913;-68
2022/12/10 02:43:16;;;;;;;;;;;-0.20;99.90;;;;;;5041892;28;19963;-67
2022/12/10 02:45:43;;;;;;;;;;;-0.10;99.90;;;;;;5039936;28;19920;-66
2022/12/10 02:48:09;;;;;;;;;;;-0.10;99.90;;;;;;5049896;28;20011;-66
2022/12/10 02:50:35;;;;;;;;;;;0.00;99.90;;;;;;5037906;28;19920;-67
2022/12/10 02:53:00;;;;;;;;;;;0.00;99.90;;;;;;5041101;28;20512;-67
2022/12/10 02:55:26;;;;;;;;;;;0.00;99.90;;;;;;5041796;28;20004;-67
2022/12/10 02:57:57;;;;;;;;;;;-0.10;99.90;;;;;;5038725;28;19920;-67
2022/12/10 03:00:24;;;;;;;;;;;0.00;99.90;;;;;;5038810;28;19917;-66
2022/12/10 03:03:08;;;;;;;;;;;0.00;99.90;;;;;;5038504;28;20300;-67
2022/12/10 03:05:37;;;;;;;;;;;0.20;99.90;;;;;;5059436;28;20012;-68
2022/12/10 03:08:12;;;;;;;;;;;0.10;99.90;;;;;;5063578;28;19920;-67
2022/12/10 03:10:42;;;;;;;;;;;0.10;99.90;;;;;;5061852;28;20376;-67
2022/12/10 03:13:11;;;;;;;;;;;0.10;99.90;;;;;;5056673;28;19920;-68
2022/12/10 03:15:38;;;;;;;;;;;0.00;99.90;;;;;;5058155;28;19982;-67
2022/12/10 03:18:05;;;;;;;;;;;0.00;99.90;;;;;;5060412;28;19924;-68
2022/12/10 03:20:32;;;;;;;;;;;0.00;99.90;;;;;;5059650;28;19917;-67
2022/12/10 03:22:58;;;;;;;;;;;0.00;99.90;;;;;;5060510;28;20434;-68
2022/12/10 03:25:24;;;;;;;;;;;0.10;99.90;;;;;;5061942;28;19916;-68
2022/12/10 03:27:51;;;;;;;;;;;0.10;99.90;;;;;;5063390;28;19916;-66
2022/12/10 03:30:17;;;;;;;;;;;0.10;99.90;;;;;;5059713;28;19924;-67
2022/12/10 03:32:43;;;;;;;;;;;0.10;99.90;;;;;;5060324;28;20613;-67
2022/12/10 03:35:09;;;;;;;;;;;0.10;99.90;;;;;;5064352;28;20346;-67
2022/12/10 03:37:34;;;;;;;;;;;0.10;99.90;;;;;;5057673;28;19995;-68
2022/12/10 03:40:00;;;;;;;;;;;0.10;99.90;;;;;;5063470;28;19920;-68
2022/12/10 03:42:25;;;;;;;;;;;0.10;99.90;;;;;;5058783;28;20528;-67
2022/12/10 03:44:52;;;;;;;;;;;0.20;99.90;;;;;;5059436;28;20372;-68
2022/12/10 03:47:18;;;;;;;;;;;0.10;99.90;;;;;;5056645;28;19928;-68
2022/12/10 03:49:43;;;;;;;;;;;0.10;99.90;;;;;;5061987;28;19913;-67
2022/12/10 03:52:09;;;;;;;;;;;0.10;99.90;;;;;;5059242;28;19917;-69
2022/12/10 03:54:35;;;;;;;;;;;0.10;99.90;;;;;;5057806;28;19917;-67
2022/12/10 03:57:00;;;;;;;;;;;0.20;99.90;;;;;;5056080;28;20021;-67
2022/12/10 03:59:26;;;;;;;;;;;0.10;99.90;;;;;;5058844;28;20003;-67
2022/12/10 04:01:51;;;;;;;;;;;0.10;99.90;;;;;;5064875;28;20275;-67
2022/12/10 04:04:17;;;;;;;;;;;0.10;99.90;;;;;;5061215;28;20346;-67
2022/12/10 04:06:43;;;;;;;;;;;0.00;99.90;;;;;;5058279;28;19966;-67
2022/12/10 04:09:12;;;;;;;;;;;0.00;99.90;;;;;;5060569;28;19938;-67
2022/12/10 04:11:37;;;;;;;;;;;0.00;99.90;;;;;;5060960;28;19950;-68
2022/12/10 04:16:47;;;;;;;;;;;0.00;99.90;;;;;;5059482;28;20304;-68
2022/12/10 04:19:13;;;;;;;;;;;0.00;99.90;;;;;;5057724;28;19912;-68
2022/12/10 04:27:10;;;;;;;;;;;-0.20;99.90;;;;;;5060072;28;20586;-67
2022/12/10 04:29:36;;;;;;;;;;;-0.20;99.90;;;;;;5056902;28;19979;-68
2022/12/10 04:32:02;;;;;;;;;;;-0.30;99.90;;;;;;5058480;28;20025;-68
2022/12/10 04:34:27;;;;;;;;;;;-0.40;99.90;;;;;;5052917;28;20553;-67
2022/12/10 04:36:53;;;;;;;;;;;-0.40;99.90;;;;;;5063943;28;19912;-68
2022/12/10 04:39:18;;;;;;;;;;;-0.40;99.90;;;;;;5056774;28;19940;-68
2022/12/10 04:41:45;;;;;;;;;;;-0.40;99.90;;;;;;5057435;28;19920;-68
2022/12/10 04:44:11;;;;;;;;;;;-0.40;99.90;;;;;;5057466;28;19947;-68
2022/12/10 04:46:36;;;;;;;;;;;-0.40;99.90;;;;;;5054365;28;20035;-68
2022/12/10 04:49:02;;;;;;;;;;;-0.50;99.90;;;;;;5059327;28;19995;-67
2022/12/10 04:51:28;;;;;;;;;;;-0.50;99.90;;;;;;5057825;28;20491;-66
2022/12/10 04:53:53;;;;;;;;;;;-0.50;99.90;;;;;;5062585;28;19999;-67
2022/12/10 04:56:19;;;;;;;;;;;-0.50;99.90;;;;;;5056391;28;20641;-67
2022/12/10 04:58:45;;;;;;;;;;;-0.60;99.90;;;;;;5059105;28;19927;-66
2022/12/10 05:01:11;;;;;;;;;;;-0.60;99.90;;;;;;5059868;28;19912;-68
2022/12/10 05:03:36;;;;;;;;;;;-0.60;99.90;;;;;;5053498;28;19927;-67
2022/12/10 05:06:03;;;;;;;;;;;-0.70;99.90;;;;;;5060276;28;19924;-68
2022/12/10 05:08:29;;;;;;;;;;;-0.70;99.90;;;;;;5055150;28;19951;-67
2022/12/10 05:10:54;;;;;;;;;;;-0.60;99.90;;;;;;5059634;28;19954;-67
2022/12/10 05:13:20;;;;;;;;;;;-0.70;99.90;;;;;;5059381;28;19982;-66
2022/12/10 05:15:45;;;;;;;;;;;-0.80;99.90;;;;;;5055622;28;19947;-67
2022/12/10 05:18:11;;;;;;;;;;;-0.80;99.90;;;;;;5059971;28;19947;-68
2022/12/10 05:20:36;;;;;;;;;;;-0.80;99.90;;;;;;5054738;28;19925;-68
2022/12/10 05:25:55;;;;;;;;;;;-0.70;99.90;;;;;;5055853;28;20011;-67
2022/12/10 05:28:22;;;;;;;;;;;-0.80;99.90;;;;;;5059010;28;22172;-67
2022/12/10 05:30:48;;;;;;;;;;;-0.80;99.90;;;;;;5056051;28;19928;-67
2022/12/10 05:33:14;;;;;;;;;;;-0.80;99.90;;;;;;5059260;28;19943;-68
2022/12/10 05:35:39;;;;;;;;;;;-0.80;99.90;;;;;;5054541;28;19913;-67
2022/12/10 05:38:05;;;;;;;;;;;-0.80;99.90;;;;;;5057125;28;19921;-68
2022/12/10 05:40:34;;;;;;;;;;;-0.80;99.90;;;;;;5057817;28;19961;-67
2022/12/10 05:42:59;;;;;;;;;;;-0.80;99.90;;;;;;5056866;28;19913;-67
2022/12/10 05:45:25;;;;;;;;;;;-0.80;99.90;;;;;;5057550;28;19942;-68
2022/12/10 05:47:50;;;;;;;;;;;-0.80;99.90;;;;;;5058263;28;20015;-68
2022/12/10 05:50:16;;;;;;;;;;;-0.70;99.90;;;;;;5065323;28;19916;-68
2022/12/10 05:52:41;;;;;;;;;;;-0.80;99.90;;;;;;5052561;28;20004;-67
2022/12/10 05:55:07;;;;;;;;;;;-0.90;99.90;;;;;;5060282;28;19925;-67
2022/12/10 05:57:32;;;;;;;;;;;-0.80;99.90;;;;;;5057521;28;20587;-67
2022/12/10 05:59:58;;;;;;;;;;;-0.80;99.90;;;;;;5058775;28;20402;-68
2022/12/10 06:02:23;;;;;;;;;;;-0.90;99.90;;;;;;5058479;28;20060;-69
2022/12/10 06:04:48;;;;;;;;;;;-0.90;99.90;;;;;;5055918;28;20299;-68
2022/12/10 06:07:14;;;;;;;;;;;-1.00;99.90;;;;;;5057353;28;19924;-67
2022/12/10 06:09:39;;;;;;;;;;;-0.90;99.90;;;;;;5056368;28;19912;-68
2022/12/10 06:12:05;;;;;;;;;;;-1.00;99.90;;;;;;5058300;28;20416;-66
2022/12/10 06:14:30;;;;;;;;;;;-1.00;99.90;;;;;;5058892;28;19913;-67
2022/12/10 06:16:56;;;;;;;;;;;-1.00;99.90;;;;;;5058372;28;19916;-67
2022/12/10 06:19:21;;;;;;;;;;;-1.00;99.90;;;;;;5056633;28;20487;-67
2022/12/10 06:21:47;;;;;;;;;;;-1.10;99.90;;;;;;5061445;28;19927;-68
2022/12/10 06:24:12;;;;;;;;;;;-1.00;99.90;;;;;;5058128;28;19952;-67
2022/12/10 06:26:38;;;;;;;;;;;-1.00;99.90;;;;;;5056404;28;19924;-67
2022/12/10 06:29:04;;;;;;;;;;;-1.00;99.90;;;;;;5056780;28;19921;-67
2022/12/10 06:31:30;;;;;;;;;;;-1.00;99.90;;;;;;5057512;28;19979;-67
2022/12/10 06:33:55;;;;;;;;;;;-1.00;99.90;;;;;;5058531;28;19916;-67
2022/12/10 06:36:21;;;;;;;;;;;-0.90;99.90;;;;;;5058630;28;19999;-67
2022/12/10 06:38:47;;;;;;;;;;;-0.80;99.90;;;;;;5058352;28;20718;-68
2022/12/10 06:41:14;;;;;;;;;;;-0.70;99.90;;;;;;5056139;28;19955;-67
2022/12/10 06:43:39;;;;;;;;;;;-0.70;99.90;;;;;;5059842;28;19916;-67
2022/12/10 06:46:08;;;;;;;;;;;-0.80;99.90;;;;;;5056681;28;19989;-67
2022/12/10 06:48:34;;;;;;;;;;;-0.70;99.90;;;;;;5057974;28;20220;-68
2022/12/10 06:51:00;;;;;;;;;;;-0.50;99.90;;;;;;5056835;28;19919;-66
2022/12/10 06:53:25;;;;;;;;;;;-0.30;99.90;;;;;;5056986;28;20746;-68
2022/12/10 06:55:51;;;;;;;;;;;-0.10;99.90;;;;;;5062746;28;19916;-68
2022/12/10 06:58:16;;;;;;;;;;;-0.10;99.90;;;;;;5060075;28;19919;-68
2022/12/10 07:00:42;;;;;;;;;;;-0.20;99.90;;;;;;5057162;28;19920;-67
2022/12/10 07:03:07;;;;;;;;;;;0.00;99.90;;;;;;5056768;28;19935;-68
2022/12/10 07:05:33;;;;;;;;;;;0.20;99.90;;;;;;5063210;28;20477;-68
2022/12/10 07:07:58;;;;;;;;;;;0.70;99.90;;;;;;5063634;28;19927;-67
2022/12/10 07:10:24;;;;;;;;;;;0.20;99.90;;;;;;5059959;28;20429;-67
2022/12/10 07:12:49;;;;;;;;;;;0.30;99.90;;;;;;5061140;28;19916;-67
2022/12/10 07:15:15;;;;;;;;;;;0.50;99.90;;;;;;5061686;28;20284;-68
2022/12/10 07:17:40;;;;;;;;;;;0.40;99.90;;;;;;5062810;28;20481;-68
2022/12/10 07:20:06;;;;;;;;;;;0.50;99.90;;;;;;5062228;28;20015;-67
2022/12/10 07:22:32;;;;;;;;;;;0.60;99.90;;;;;;5057679;28;19921;-68
2022/12/10 07:24:58;;;;;;;;;;;0.70;99.90;;;;;;5053892;28;19936;-67
2022/12/10 07:27:23;;;;;;;;;;;0.70;99.90;;;;;;5061942;28;19916;-68
2022/12/10 07:29:48;;;;;;;;;;;0.50;99.90;;;;;;5060023;28;19919;-68
2022/12/10 07:32:14;;;;;;;;;;;0.40;99.90;;;;;;5056062;28;20437;-68
2022/12/10 07:34:39;;;;;;;;;;;0.30;99.90;;;;;;5057572;28;19923;-68
2022/12/10 07:37:05;;;;;;;;;;;-0.20;99.90;;;;;;5057625;28;19913;-69
2022/12/10 07:39:30;;;;;;;;;;;0.00;99.90;;;;;;5059913;28;19917;-68
2022/12/10 07:41:56;;;;;;;;;;;0.40;99.90;;;;;;5054697;28;20098;-69
2022/12/10 07:44:22;;;;;;;;;;;0.60;99.90;;;;;;5060569;28;20049;-68
2022/12/10 07:46:49;;;;;;;;;;;0.50;99.90;;;;;;5057800;28;19948;-68
2022/12/10 07:49:15;;;;;;;;;;;0.50;99.90;;;;;;5054778;28;20791;-68
2022/12/10 07:51:43;;;;;;;;;;;0.20;99.90;;;;;;5060154;28;19973;-68
2022/12/10 07:54:08;;;;;;;;;;;0.00;99.90;;;;;;5061758;28;19912;-68
2022/12/10 07:56:34;;;;;;;;;;;0.30;99.90;;;;;;5060374;28;19920;-69
2022/12/10 07:58:59;;;;;;;;;;;0.50;99.90;;;;;;5057906;28;19942;-68
2022/12/10 08:01:25;;;;;;;;;;;0.50;99.90;;;;;;5058102;28;20301;-68
2022/12/10 08:03:51;;;;;;;;;;;0.60;99.90;;;;;;5061807;28;19912;-68
2022/12/10 08:06:19;;;;;;;;;;;0.60;99.90;;;;;;5057809;28;19923;-68
2022/12/10 08:08:44;;;;;;;;;;;0.60;99.90;;;;;;5060556;28;19919;-69
2022/12/10 08:11:10;;;;;;;;;;;0.60;99.90;;;;;;5054417;28;20292;-69
2022/12/10 08:13:36;;;;;;;;;;;0.70;99.90;;;;;;5058882;28;19923;-69
2022/12/10 08:16:03;;;;;;;;;;;1.00;99.90;;;;;;5059075;28;19912;-68
2022/12/10 08:18:29;;;;;;;;;;;1.00;99.90;;;;;;5058506;28;19912;-69
2022/12/10 08:20:55;;;;;;;;;;;0.90;99.90;;;;;;5058516;28;20011;-68
2022/12/10 08:23:20;;;;;;;;;;;0.50;99.90;;;;;;5058718;28;20093;-69
2022/12/10 08:25:45;;;;;;;;;;;1.00;99.90;;;;;;5062245;28;19920;-69
2022/12/10 08:28:11;;;;;;;;;;;0.70;99.90;;;;;;5058577;28;20064;-70
2022/12/10 08:30:36;;;;;;;;;;;0.80;99.90;;;;;;5058062;28;20041;-70
2022/12/10 08:33:02;;;;;;;;;;;1.10;99.90;;;;;;5058607;28;20015;-69
2022/12/10 08:35:28;;;;;;;;;;;1.00;99.90;;;;;;5060747;28;20344;-69
2022/12/10 08:37:53;;;;;;;;;;;1.00;99.90;;;;;;5060553;28;19912;-70
2022/12/10 08:40:19;;;;;;;;;;;0.80;99.90;;;;;;5060980;28;20015;-69
2022/12/10 08:42:44;;;;;;;;;;;0.50;99.90;;;;;;5059322;28;20471;-70
2022/12/10 08:45:10;;;;;;;;;;;0.30;99.90;;;;;;5060476;28;19912;-70
2022/12/10 08:47:35;;;;;;;;;;;0.30;99.90;;;;;;5060679;28;19916;-70
2022/12/10 08:50:00;;;;;;;;;;;0.60;99.90;;;;;;5058255;28;19921;-70
2022/12/10 08:52:28;;;;;;;;;;;1.00;99.90;;;;;;5059156;28;20015;-70
2022/12/10 08:54:54;;;;;;;;;;;0.90;99.90;;;;;;5054928;28;20587;-70
2022/12/10 08:57:19;;;;;;;;;;;1.10;99.90;;;;;;5055592;28;20016;-70
2022/12/10 08:59:45;;;;;;;;;;;1.40;99.90;;;;;;5059217;28;20291;-70
2022/12/10 09:02:11;;;;;;;;;;;0.90;99.90;;;;;;5058365;28;20037;-70
2022/12/10 09:04:36;;;;;;;;;;;0.50;99.90;;;;;;5055450;28;19920;-70
2022/12/10 09:07:03;;;;;;;;;;;0.70;99.90;;;;;;5059281;28;19916;-70
2022/12/10 09:09:28;;;;;;;;;;;1.20;99.90;;;;;;5059110;28;19912;-71
2022/12/10 09:11:54;;;;;;;;;;;1.20;99.90;;;;;;5065189;28;19913;-71
2022/12/10 09:14:19;;;;;;;;;;;1.30;99.90;;;;;;5063587;28;19938;-71
2022/12/10 09:16:44;;;;;;;;;;;1.20;99.90;;;;;;5056243;28;19924;-71
2022/12/10 09:19:10;;;;;;;;;;;1.50;99.90;;;;;;5061670;28;20456;-71
2022/12/10 09:21:35;;;;;;;;;;;1.70;99.90;;;;;;5058894;28;19928;-70
2022/12/10 09:24:01;;;;;;;;;;;1.50;99.90;;;;;;5062583;28;19943;-70
2022/12/10 09:26:26;;;;;;;;;;;1.40;99.90;;;;;;5057187;28;20747;-68
2022/12/10 09:28:52;;;;;;;;;;;1.30;99.90;;;;;;5058224;28;19947;-71
2022/12/10 09:31:18;;;;;;;;;;;1.30;99.90;;;;;;5060439;28;19924;-71
2022/12/10 09:33:44;;;;;;;;;;;1.40;99.90;;;;;;5061838;28;19916;-71
2022/12/10 09:36:10;;;;;;;;;;;1.60;99.90;;;;;;5058464;28;19920;-71
2022/12/10 09:38:37;;;;;;;;;;;1.40;99.90;;;;;;5065064;28;19916;-70
2022/12/10 09:41:05;;;;;;;;;;;1.80;99.90;;;;;;5064097;28;19916;-70
2022/12/10 09:43:52;;;;;;;;;;;1.80;99.90;;;;;;5061028;28;19912;-70
2022/12/10 09:46:25;;;;;;;;;;;1.50;99.90;;;;;;5056324;28;20426;-69
2022/12/10 09:49:05;;;;;;;;;;;1.20;99.90;;;;;;5054848;28;19916;-70
2022/12/10 09:51:36;;;;;;;;;;;1.30;99.90;;;;;;5057046;28;19964;-68
2022/12/10 09:54:03;;;;;;;;;;;1.10;99.90;;;;;;5057326;28;20360;-69
2022/12/10 09:56:30;;;;;;;;;;;0.80;99.90;;;;;;5061461;28;20364;-69
2022/12/10 09:58:56;;;;;;;;;;;1.00;99.90;;;;;;5057536;28;19925;-69
2022/12/10 10:01:24;;;;;;;;;;;1.10;99.90;;;;;;5064440;28;19999;-69
2022/12/10 10:03:50;;;;;;;;;;;1.30;99.90;;;;;;5060283;28;19913;-69
2022/12/10 10:06:15;;;;;;;;;;;1.70;99.90;;;;;;5059005;28;19924;-68
2022/12/10 10:08:43;;;;;;;;;;;1.60;99.90;;;;;;5056589;28;19935;-68
2022/12/10 10:11:38;;;;;;;;;;;1.70;99.90;;;;;;5053202;28;19927;-67
2022/12/10 10:14:05;;;;;;;;;;;1.70;99.90;;;;;;5033352;28;20408;-67
2022/12/10 10:16:33;;;;;;;;;;;1.90;99.90;;;;;;5057936;28;19916;-67
2022/12/10 10:19:01;;;;;;;;;;;1.80;99.90;;;;;;5056282;28;20556;-67
2022/12/10 10:21:33;;;;;;;;;;;1.90;99.90;;;;;;5057252;28;20479;-66
2022/12/10 10:23:59;;;;;;;;;;;1.80;99.90;;;;;;5055728;28;19919;-65
2022/12/10 10:26:26;;;;;;;;;;;1.70;99.90;;;;;;5058172;28;19920;-65
2022/12/10 10:29:03;;;;;;;;;;;1.80;99.90;;;;;;5057004;28;19948;-65
2022/12/10 10:31:31;;;;;;;;;;;1.70;99.90;;;;;;5045011;28;19942;-64
2022/12/10 10:33:58;;;;;;;;;;;1.80;99.90;;;;;;5038143;28;19927;-64
2022/12/10 10:36:25;;;;;;;;;;;1.70;99.90;;;;;;5038065;28;20012;-64
2022/12/10 10:38:51;;;;;;;;;;;1.30;99.90;;;;;;5037421;28;19964;-63
2022/12/10 10:41:17;;;;;;;;;;;1.90;99.90;;;;;;5041008;28;20024;-64
2022/12/10 10:43:47;;;;;;;;;;;1.80;99.90;;;;;;5039749;28;19996;-63
2022/12/10 10:46:35;;;;;;;;;;;1.80;99.90;;;;;;5040291;28;19921;-63
2022/12/10 10:49:20;;;;;;;;;;;1.70;99.90;;;;;;5039467;28;19917;-63
2022/12/10 10:51:46;;;;;;;;;;;1.70;99.90;;;;;;5032485;28;20028;-63
2022/12/10 10:54:11;;;;;;;;;;;1.40;99.90;;;;;;5041009;28;19967;-63
2022/12/10 10:56:42;;;;;;;;;;;1.70;99.90;;;;;;5041113;28;20025;-63
2022/12/10 10:59:16;;;;;;;;;;;1.50;99.90;;;;;;5039383;28;19925;-63
2022/12/10 11:01:52;;;;;;;;;;;1.50;99.90;;;;;;5039796;28;20366;-63
2022/12/10 11:04:21;;;;;;;;;;;1.60;99.90;;;;;;5037890;28;20629;-63
2022/12/10 11:06:49;;;;;;;;;;;1.70;99.90;;;;;;5036657;28;19916;-63
2022/12/10 11:09:20;;;;;;;;;;;1.80;99.90;;;;;;5037425;28;19963;-63
2022/12/10 11:11:50;;;;;;;;;;;1.80;99.90;;;;;;5041245;28;19921;-63
2022/12/10 11:14:41;;;;;;;;;;;1.70;99.90;;;;;;5039980;28;20032;-63
2022/12/10 11:17:10;;;;;;;;;;;2.20;99.90;;;;;;5031119;28;19925;-63
2022/12/10 11:19:41;;;;;;;;;;;2.20;99.90;;;;;;5040651;28;19913;-63
2022/12/10 11:22:21;;;;;;;;;;;1.70;99.90;;;;;;5040079;28;19940;-63
2022/12/10 11:24:47;;;;;;;;;;;2.00;99.90;;;;;;5038938;28;20055;-63
2022/12/10 11:27:33;;;;;;;;;;;2.10;99.90;;;;;;5030415;28;20021;-65
2022/12/10 11:30:04;;;;;;;;;;;2.30;99.90;;;;;;5029079;28;19913;-64
2022/12/10 11:32:48;;;;;;;;;;;2.20;99.90;;;;;;5041233;28;19924;-64
2022/12/10 11:35:32;;;;;;;;;;;2.40;99.90;;;;;;5038563;28;20467;-63
2022/12/10 11:38:16;;;;;;;;;;;2.60;99.90;;;;;;5033081;28;19940;-64
2022/12/10 11:40:45;;;;;;;;;;;2.50;99.90;;;;;;5038099;28;19913;-65
2022/12/10 11:43:22;;;;;;;;;;;2.40;99.90;;;;;;5035893;28;20282;-65
2022/12/10 11:45:57;;;;;;;;;;;2.40;99.90;;;;;;5038898;28;19924;-65
2022/12/10 11:48:28;;;;;;;;;;;2.30;99.90;;;;;;5039845;28;19928;-65
2022/12/10 11:50:59;;;;;;;;;;;2.00;99.90;;;;;;5038143;28;19968;-65
2022/12/10 11:53:30;;;;;;;;;;;2.30;99.90;;;;;;5037608;28;20318;-65
2022/12/10 11:56:03;;;;;;;;;;;2.50;99.90;;;;;;5039521;28;19925;-65
2022/12/10 11:59:04;;;;;;;;;;;2.30;99.90;;;;;;5038037;28;19931;-65
2022/12/10 12:01:32;;;;;;;;;;;2.20;99.90;;;;;;4978506;28;19944;-65
2022/12/10 12:04:10;;;;;;;;;;;2.40;99.90;;;;;;5035722;28;19936;-65
2022/12/10 12:06:52;;;;;;;;;;;2.40;99.90;;;;;;5038057;28;19923;-64
2022/12/10 12:09:36;;;;;;;;;;;2.70;99.90;;;;;;5037543;28;19937;-65
2022/12/10 12:12:02;;;;;;;;;;;2.30;99.90;;;;;;5038552;28;19947;-65
2022/12/10 12:14:32;;;;;;;;;;;1.90;99.90;;;;;;5040177;28;19925;-65
2022/12/10 12:17:03;;;;;;;;;;;2.00;99.90;;;;;;5040035;28;19921;-65
2022/12/10 12:19:35;;;;;;;;;;;2.20;99.90;;;;;;5041476;28;19917;-65
2022/12/10 12:22:06;;;;;;;;;;;2.00;99.90;;;;;;5039266;28;19986;-65
2022/12/10 12:24:35;;;;;;;;;;;2.50;99.90;;;;;;5045196;28;19917;-65
2022/12/10 12:27:02;;;;;;;;;;;2.40;99.90;;;;;;5043743;28;19925;-65
2022/12/10 12:29:30;;;;;;;;;;;2.50;99.90;;;;;;5036838;28;20635;-65
2022/12/10 12:32:16;;;;;;;;;;;2.70;99.90;;;;;;5042315;28;20392;-63
2022/12/10 12:34:44;;;;;;;;;;;2.70;99.90;;;;;;5044522;28;19917;-64
2022/12/10 12:37:11;;;;;;;;;;;2.30;99.90;;;;;;5038424;28;20389;-64
2022/12/10 12:40:06;;;;;;;;;;;1.90;99.90;;;;;;5040116;28;19917;-64
2022/12/10 12:42:38;;;;;;;;;;;2.00;99.90;;;;;;4995581;28;19925;-64
2022/12/10 12:45:13;;;;;;;;;;;2.10;99.90;;;;;;5040770;28;19995;-64
2022/12/10 12:47:43;;;;;;;;;;;2.10;99.90;;;;;;5040478;28;19928;-65
2022/12/10 12:50:17;;;;;;;;;;;2.20;99.90;;;;;;5042263;28;19913;-64
2022/12/10 12:52:46;;;;;;;;;;;2.20;99.90;;;;;;5039014;28;20314;-64
2022/12/10 12:55:26;;;;;;;;;;;2.10;99.90;;;;;;5040525;28;20376;-64
2022/12/10 12:58:15;;;;;;;;;;;2.10;99.90;;;;;;5039147;28;20049;-64
2022/12/10 13:00:43;;;;;;;;;;;1.80;99.90;;;;;;5036189;28;19913;-64
2022/12/10 13:03:28;;;;;;;;;;;2.20;99.90;;;;;;5038864;28;19947;-64
2022/12/10 13:05:54;;;;;;;;;;;2.00;99.90;;;;;;5037832;28;20336;-64
2022/12/10 13:08:19;;;;;;;;;;;1.60;99.90;;;;;;5037073;28;20019;-64
2022/12/10 13:10:52;;;;;;;;;;;1.80;99.90;;;;;;5038221;28;19985;-64
2022/12/10 13:13:24;;;;;;;;;;;2.10;99.90;;;;;;5034884;28;19978;-64
2022/12/10 13:15:49;;;;;;;;;;;2.00;99.90;;;;;;5038069;28;20296;-64
2022/12/10 13:18:17;;;;;;;;;;;1.90;99.90;;;;;;5040709;28;19925;-64
2022/12/10 13:21:01;;;;;;;;;;;1.80;99.90;;;;;;5038513;28;20444;-65
2022/12/10 13:23:31;;;;;;;;;;;1.70;99.90;;;;;;5041594;28;20483;-65
2022/12/10 13:25:59;;;;;;;;;;;1.90;99.90;;;;;;5037274;28;19921;-64
2022/12/10 13:28:43;;;;;;;;;;;1.70;99.90;;;;;;5039231;28;20416;-65
2022/12/10 13:31:15;;;;;;;;;;;1.70;99.90;;;;;;5037502;28;19942;-65
2022/12/10 13:33:49;;;;;;;;;;;1.90;99.90;;;;;;5038459;28;19985;-65
2022/12/10 13:36:19;;;;;;;;;;;1.90;99.90;;;;;;5050879;28;20524;-65
2022/12/10 13:39:11;;;;;;;;;;;1.80;99.90;;;;;;5035723;28;19947;-65
2022/12/10 13:44:44;;;;;;;;;;;1.80;99.90;;;;;;5036354;28;20629;-60
2022/12/10 13:47:10;;;;;;;;;;;2.30;99.90;;;;;;5036441;28;19974;-65
2022/12/10 13:49:48;;;;;;;;;;;2.10;99.90;;;;;;5035950;28;20006;-65
2022/12/10 13:52:14;;;;;;;;;;;;;;;;;;5036517;28;20641;-65
2022/12/10 13:54:59;;;;;;;;;;;2.40;99.90;;;;;;5037264;28;19921;-64
2022/12/10 13:57:36;;;;;;;;;;;2.50;99.90;;;;;;5035314;28;19966;-64
2022/12/10 14:00:22;;;;;;;;;;;2.70;99.90;;;;;;5035350;28;20322;-64
2022/12/10 14:03:06;;;;;;;;;;;2.80;99.90;;;;;;5029908;28;19928;-64
2022/12/10 14:05:50;;;;;;;;;;;2.50;99.90;;;;;;5033788;28;19994;-64
2022/12/10 14:08:35;;;;;;;;;;;2.20;99.90;;;;;;5032736;28;20024;-64
2022/12/10 14:11:02;;;;;;;;;;;1.80;99.90;;;;;;5032307;28;19925;-64
2022/12/10 14:13:33;;;;;;;;;;;1.60;99.90;;;;;;5052251;28;19919;-64
2022/12/10 14:16:00;;;;;;;;;;;2.00;99.90;;;;;;5055858;28;19916;-64
2022/12/10 14:18:27;;;;;;;;;;;2.30;99.90;;;;;;5057311;28;19994;-64
2022/12/10 14:20:53;;;;;;;;;;;2.40;99.90;;;;;;5055303;28;19913;-64
2022/12/10 14:23:40;;;;;;;;;;;2.30;99.90;;;;;;5054532;28;19927;-64
2022/12/10 14:26:07;;;;;;;;;;;2.30;99.90;;;;;;5053894;28;19952;-64
2022/12/10 14:28:33;;;;;;;;;;;2.60;99.90;;;;;;5057609;28;20390;-64
2022/12/10 14:30:59;;;;;;;;;;;2.70;99.90;;;;;;5053515;28;19920;-64
2022/12/10 14:33:24;;;;;;;;;;;2.40;99.90;;;;;;5055064;28;19912;-64
2022/12/10 14:35:51;;;;;;;;;;;2.50;99.90;;;;;;5056173;28;20000;-64
2022/12/10 14:38:20;;;;;;;;;;;2.40;99.90;;;;;;5054759;28;19924;-64
2022/12/10 14:40:46;;;;;;;;;;;2.30;99.90;;;;;;5055212;28;19923;-64
2022/12/10 14:43:14;;;;;;;;;;;2.60;99.90;;;;;;5058841;28;19912;-64
2022/12/10 14:45:50;;;;;;;;;;;2.30;99.90;;;;;;5054790;28;20411;-64
2022/12/10 14:48:17;;;;;;;;;;;2.30;99.90;;;;;;5057522;28;19924;-64
2022/12/10 14:50:43;;;;;;;;;;;2.50;99.90;;;;;;5056641;28;19920;-64